Time;durP1;ratioP1;P1;durP2;ratioP2;P2;SDS_P1;SDS_P2;PMS_P1;PMS_P2;Temp;Humidity;BMP_temperature;BMP_pressure;BME280_temperature;BME280_humidity;BME280_pressure;Samples;Min_cycle;Max_cycle;Signal;HPM_P1;HPM_P2
2024/01/25 00:01:45;;;;;;;;;;;4.30;99.90;;;;;;4998015;28;20022;-77
2024/01/25 00:04:11;;;;;;;15.80;2.05;;;4.50;99.90;;;;;;5014364;28;20448;-76
2024/01/25 00:06:36;;;;;;;;;;;4.60;99.90;;;;;;5015574;28;20731;-78
2024/01/25 00:09:04;;;;;;;12.60;2.50;;;4.70;99.90;;;;;;5015412;28;19916;-77
2024/01/25 00:11:31;;;;;;;13.35;2.35;;;4.90;99.90;;;;;;4997770;28;20021;-76
2024/01/25 00:13:57;;;;;;;14.15;1.88;;;5.00;99.90;;;;;;4997643;28;20502;-77
2024/01/25 00:16:23;;;;;;;17.95;2.55;;;5.30;99.90;;;;;;5000483;28;20025;-77
2024/01/25 00:18:48;;;;;;;;;;;5.30;99.90;;;;;;5001040;28;20038;-78
2024/01/25 00:21:14;;;;;;;14.25;2.50;;;5.30;99.90;;;;;;4998006;28;19913;-78
2024/01/25 00:23:39;;;;;;;;;;;5.40;99.90;;;;;;4997912;28;20042;-78
2024/01/25 00:26:05;;;;;;;13.23;2.67;;;5.60;99.90;;;;;;4999113;28;19953;-78
2024/01/25 00:28:31;;;;;;;;;;;5.60;99.90;;;;;;4998187;28;20030;-78
2024/01/25 00:30:56;;;;;;;16.55;2.55;;;5.70;99.90;;;;;;4995973;28;20401;-77
2024/01/25 00:33:22;;;;;;;;;;;5.80;99.90;;;;;;4997481;28;20403;-78
2024/01/25 00:35:48;;;;;;;14.88;2.35;;;6.00;99.90;;;;;;4992581;28;19977;-78
2024/01/25 00:38:13;;;;;;;;;;;6.10;99.90;;;;;;4994759;28;20482;-77
2024/01/25 00:40:40;;;;;;;12.88;2.60;;;6.20;99.90;;;;;;4995458;28;19910;-77
2024/01/25 00:43:06;;;;;;;18.48;2.53;;;6.20;99.90;;;;;;4997004;28;20439;-76
2024/01/25 00:45:31;;;;;;;;;;;6.30;99.90;;;;;;4997958;28;20031;-77
2024/01/25 00:47:57;;;;;;;16.80;2.40;;;6.40;99.90;;;;;;4998296;28;19941;-77
2024/01/25 00:50:25;;;;;;;;;;;6.50;99.90;;;;;;4995900;28;20023;-78
2024/01/25 00:52:51;;;;;;;13.57;1.65;;;6.50;99.90;;;;;;4997673;28;20392;-78
2024/01/25 00:55:17;;;;;;;;;;;6.40;99.90;;;;;;4997474;28;20117;-78
2024/01/25 00:57:43;;;;;;;14.65;1.70;;;6.40;99.90;;;;;;4998303;28;19972;-78
2024/01/25 01:00:09;;;;;;;;;;;6.50;99.90;;;;;;4997755;28;20030;-77
2024/01/25 01:02:39;;;;;;;22.17;2.60;;;6.50;99.90;;;;;;4997150;28;19916;-79
2024/01/25 01:05:05;;;;;;;17.88;2.53;;;6.50;99.90;;;;;;4997852;28;20033;-77
2024/01/25 01:07:31;;;;;;;14.07;1.65;;;6.50;99.90;;;;;;4998303;28;20662;-78
2024/01/25 01:09:56;;;;;;;;;;;6.50;99.90;;;;;;4997801;28;20487;-78
2024/01/25 01:12:22;;;;;;;14.70;2.17;;;6.50;99.90;;;;;;4998665;28;20013;-78
2024/01/25 01:14:48;;;;;;;;;;;6.50;99.90;;;;;;5003686;28;20030;-79
2024/01/25 01:17:14;;;;;;;14.48;2.20;;;6.50;99.90;;;;;;4999016;28;19918;-77
2024/01/25 01:19:39;;;;;;;12.65;2.17;;;6.50;99.90;;;;;;4997266;28;20026;-77
2024/01/25 01:22:05;;;;;;;;;;;6.50;99.90;;;;;;4997199;28;20384;-78
2024/01/25 01:24:30;;;;;;;16.02;4.55;;;6.50;99.90;;;;;;4999311;28;19953;-77
2024/01/25 01:26:56;;;;;;;;;;;6.60;99.90;;;;;;4996363;28;20068;-78
2024/01/25 01:29:21;;;;;;;11.48;2.25;;;6.70;99.90;;;;;;4995857;28;19909;-78
2024/01/25 01:31:47;;;;;;;;;;;6.60;99.90;;;;;;4995939;28;20094;-77
2024/01/25 01:34:13;;;;;;;14.23;3.22;;;6.70;99.90;;;;;;4995201;28;19910;-78
2024/01/25 01:36:39;;;;;;;14.57;1.95;;;6.60;99.90;;;;;;4994974;28;20042;-77
2024/01/25 01:39:05;;;;;;;;;;;6.50;99.90;;;;;;4996697;28;20384;-78
2024/01/25 01:41:31;;;;;;;13.80;2.15;;;6.60;99.90;;;;;;4997879;28;19906;-78
2024/01/25 01:43:57;;;;;;;;;;;6.70;99.90;;;;;;4998743;28;20037;-77
2024/01/25 01:46:25;;;;;;;17.95;2.17;;;6.70;99.90;;;;;;4997034;28;19914;-78
2024/01/25 01:48:51;;;;;;;17.25;3.17;;;6.80;99.90;;;;;;5001529;28;20081;-78
2024/01/25 01:51:17;;;;;;;;;;;6.80;99.90;;;;;;5004906;28;20030;-77
2024/01/25 01:53:43;;;;;;;20.67;4.60;;;6.90;99.90;;;;;;5004103;28;19906;-78
2024/01/25 01:56:09;;;;;;;;;;;6.80;99.90;;;;;;4999817;28;20121;-77
2024/01/25 01:58:35;;;;;;;28.45;3.88;;;6.80;99.90;;;;;;4995237;28;20394;-77
2024/01/25 02:01:01;;;;;;;;;;;6.90;99.90;;;;;;4996632;28;20026;-77
2024/01/25 02:03:27;;;;;;;17.55;3.83;;;6.90;99.90;;;;;;4994871;28;20370;-76
2024/01/25 02:05:53;;;;;;;;;;;6.80;99.90;;;;;;4996460;28;20026;-77
2024/01/25 02:08:18;;;;;;;14.02;4.03;;;6.80;99.90;;;;;;4996351;28;20000;-77
2024/01/25 02:10:44;;;;;;;;;;;6.80;99.90;;;;;;4995875;28;20030;-78
2024/01/25 02:13:09;;;;;;;23.58;5.95;;;6.90;99.90;;;;;;4996957;28;19905;-77
2024/01/25 02:15:35;;;;;;;;;;;6.90;99.90;;;;;;4995990;28;20110;-77
2024/01/25 02:18:01;;;;;;;19.52;3.42;;;6.80;99.90;;;;;;4994413;28;19910;-77
2024/01/25 02:20:26;;;;;;;;;;;6.80;99.90;;;;;;4997256;28;20129;-78
2024/01/25 02:22:52;;;;;;;26.83;5.40;;;6.90;99.90;;;;;;4995717;28;20406;-78
2024/01/25 02:25:17;;;;;;;;;;;7.20;99.90;;;;;;5001154;28;20030;-78
2024/01/25 02:27:43;;;;;;;14.75;3.47;;;7.00;99.90;;;;;;5001861;28;19906;-78
2024/01/25 02:30:09;;;;;;;;;;;7.00;99.90;;;;;;5003012;28;20035;-78
2024/01/25 02:32:34;;;;;;;14.63;3.83;;;7.00;99.90;;;;;;5002592;28;19933;-78
2024/01/25 02:35:00;;;;;;;;;;;7.10;99.90;;;;;;5002012;28;20034;-78
2024/01/25 02:37:26;;;;;;;17.85;2.85;;;7.00;99.90;;;;;;5002362;28;19944;-78
2024/01/25 02:39:52;;;;;;;;;;;7.00;99.90;;;;;;5002563;28;20031;-78
2024/01/25 02:42:17;;;;;;;16.88;2.50;;;7.00;99.90;;;;;;5003787;28;19910;-78
2024/01/25 02:44:43;;;;;;;;;;;6.90;99.90;;;;;;5003200;28;20023;-78
2024/01/25 02:47:09;;;;;;;19.45;2.60;;;7.00;99.90;;;;;;5003404;28;19945;-77
2024/01/25 02:49:35;;;;;;;;;;;7.00;99.90;;;;;;5001271;28;20061;-77
2024/01/25 02:52:01;;;;;;;14.30;2.30;;;7.00;99.90;;;;;;5000942;28;20477;-78
2024/01/25 02:54:26;;;;;;;;;;;7.10;99.90;;;;;;5001789;28;20022;-78
2024/01/25 02:56:52;;;;;;;14.57;1.85;;;7.10;99.90;;;;;;4999254;28;20301;-77
2024/01/25 02:59:17;;;;;;;;;;;7.10;99.90;;;;;;4998925;28;20337;-77
2024/01/25 03:01:44;;;;;;;16.58;3.13;;;7.10;99.90;;;;;;4999506;28;20359;-77
2024/01/25 03:04:10;;;;;;;13.13;1.98;;;7.20;99.90;;;;;;4998732;28;20113;-78
2024/01/25 03:06:36;;;;;;;;;;;7.20;99.90;;;;;;5000020;28;20094;-78
2024/01/25 03:09:04;;;;;;;15.38;2.55;;;7.30;99.90;;;;;;5000622;28;20018;-78
2024/01/25 03:11:30;;;;;;;10.95;1.70;;;7.30;99.90;;;;;;5000982;28;20435;-78
2024/01/25 03:13:56;;;;;;;13.15;1.88;;;7.30;99.90;;;;;;4999594;28;20076;-78
2024/01/25 03:16:22;;;;;;;17.38;2.58;;;7.20;99.90;;;;;;4998964;28;20038;-78
2024/01/25 03:18:48;;;;;;;;;;;7.40;99.90;;;;;;4999410;28;20080;-77
2024/01/25 03:21:13;;;;;;;14.02;1.67;;;7.30;99.90;;;;;;4998604;28;19921;-78
2024/01/25 03:23:39;;;;;;;;;;;7.30;99.90;;;;;;5001533;28;20054;-79
2024/01/25 03:26:04;;;;;;;17.42;2.67;;;7.20;99.90;;;;;;4996154;28;19941;-78
2024/01/25 03:28:30;;;;;;;;;;;7.20;99.90;;;;;;4997401;28;20035;-77
2024/01/25 03:30:56;;;;;;;15.90;1.80;;;7.30;99.90;;;;;;4995943;28;20003;-78
2024/01/25 03:33:21;;;;;;;;;;;7.40;99.90;;;;;;5003327;28;20034;-79
2024/01/25 03:35:47;;;;;;;12.00;1.98;;;7.50;99.90;;;;;;5000508;28;19944;-77
2024/01/25 03:38:13;;;;;;;;;;;7.40;99.90;;;;;;5000034;28;20093;-79
2024/01/25 03:40:39;;;;;;;15.85;1.92;;;7.40;99.90;;;;;;5006622;28;20422;-78
2024/01/25 03:43:05;;;;;;;;;;;7.40;99.90;;;;;;5008132;28;20026;-78
2024/01/25 03:45:32;;;;;;;13.63;2.47;;;7.30;99.90;;;;;;5010762;28;19906;-79
2024/01/25 03:47:58;;;;;;;14.57;2.47;;;7.40;99.90;;;;;;5009331;28;20102;-79
2024/01/25 03:50:23;;;;;;;;;;;7.30;99.90;;;;;;5010767;28;20034;-78
2024/01/25 03:52:49;;;;;;;15.20;2.28;;;7.20;99.90;;;;;;5009980;28;19910;-78
2024/01/25 03:55:14;;;;;;;;;;;7.20;99.90;;;;;;5010419;28;20026;-80
2024/01/25 03:57:41;;;;;;;17.20;1.73;;;7.20;99.90;;;;;;5010364;28;19972;-79
2024/01/25 04:00:08;;;;;;;17.73;3.25;;;7.10;99.90;;;;;;5008524;28;20015;-78
2024/01/25 04:02:34;;;;;;;21.00;1.98;;;7.30;99.90;;;;;;5009479;28;20022;-79
2024/01/25 04:05:00;;;;;;;;;;;7.30;99.90;;;;;;5005646;28;20026;-78
2024/01/25 04:07:25;;;;;;;18.15;1.95;;;7.30;99.90;;;;;;5006600;28;20365;-78
2024/01/25 04:09:51;;;;;;;;;;;7.10;99.90;;;;;;5005601;28;20019;-79
2024/01/25 04:12:16;;;;;;;13.95;2.45;;;7.20;99.90;;;;;;4999891;28;19937;-78
2024/01/25 04:14:42;;;;;;;;;;;7.10;99.90;;;;;;5004280;28;20045;-78
2024/01/25 04:17:08;;;;;;;16.33;1.98;;;7.20;99.90;;;;;;5011805;28;19920;-78
2024/01/25 04:19:35;;;;;;;;;;;7.20;99.90;;;;;;5011561;28;20091;-79
2024/01/25 04:22:00;;;;;;;14.65;1.75;;;7.10;99.90;;;;;;5011110;28;19921;-79
2024/01/25 04:24:26;;;;;;;;;;;7.20;99.90;;;;;;5005698;28;20038;-78
2024/01/25 04:26:52;;;;;;;21.50;1.70;;;7.10;99.90;;;;;;5007356;28;19912;-78
2024/01/25 04:29:17;;;;;;;;;;;7.20;99.90;;;;;;5009715;28;20102;-77
2024/01/25 04:31:48;;;;;;;13.52;1.90;;;7.10;99.90;;;;;;5006625;28;19905;-78
2024/01/25 04:34:14;;;;;;;16.05;2.05;;;7.10;99.90;;;;;;5000701;28;20030;-78
2024/01/25 04:36:39;;;;;;;;;;;7.10;99.90;;;;;;5007281;28;20046;-78
2024/01/25 04:39:05;;;;;;;12.15;1.48;;;7.10;99.90;;;;;;5006135;28;19909;-78
2024/01/25 04:41:30;;;;;;;;;;;7.00;99.90;;;;;;5009153;28;20022;-79
2024/01/25 04:43:56;;;;;;;16.42;2.40;;;7.00;99.90;;;;;;5010833;28;19913;-78
2024/01/25 04:46:21;;;;;;;;;;;7.10;99.90;;;;;;5010533;28;20037;-80
2024/01/25 04:48:47;;;;;;;15.50;2.20;;;7.00;99.90;;;;;;5009472;28;19905;-79
2024/01/25 04:51:16;;;;;;;;;;;7.00;99.90;;;;;;5009865;28;20399;-79
2024/01/25 04:53:42;;;;;;;14.55;1.90;;;7.10;99.90;;;;;;5010609;28;19909;-78
2024/01/25 04:56:07;;;;;;;;;;;7.10;99.90;;;;;;5010408;28;20446;-79
2024/01/25 04:58:33;;;;;;;20.80;4.30;;;7.10;99.90;;;;;;5012891;28;19910;-79
2024/01/25 05:00:59;;;;;;;;;;;7.00;99.90;;;;;;5013122;28;20025;-79
2024/01/25 05:03:25;;;;;;;17.38;2.35;;;7.10;99.90;;;;;;5013981;28;19912;-79
2024/01/25 05:05:50;;;;;;;;;;;7.10;99.90;;;;;;5013966;28;20086;-79
2024/01/25 05:08:16;;;;;;;20.92;2.85;;;7.10;99.90;;;;;;5014990;28;19914;-78
2024/01/25 05:10:42;;;;;;;;;;;7.00;99.90;;;;;;5014825;28;20057;-79
2024/01/25 05:13:08;;;;;;;14.65;2.03;;;7.10;99.90;;;;;;5013697;28;19910;-78
2024/01/25 05:15:33;;;;;;;21.90;2.10;;;7.10;99.90;;;;;;5013288;28;20030;-78
2024/01/25 05:17:59;;;;;;;;;;;7.00;99.90;;;;;;5013236;28;20046;-79
2024/01/25 05:20:31;;;;;;;12.48;2.15;;;7.10;99.90;;;;;;5014411;28;19912;-79
2024/01/25 05:22:57;;;;;;;15.52;2.10;;;7.20;99.90;;;;;;5012441;28;20033;-79
2024/01/25 05:25:23;;;;;;;;;;;7.10;99.90;;;;;;5014198;28;20038;-78
2024/01/25 05:27:48;;;;;;;19.73;2.00;;;7.20;99.90;;;;;;5013864;28;20000;-80
2024/01/25 05:30:14;;;;;;;;;;;7.10;99.90;;;;;;5014244;28;20010;-78
2024/01/25 05:32:39;;;;;;;13.55;1.63;;;7.00;99.90;;;;;;5009546;28;19905;-78
2024/01/25 05:35:06;;;;;;;;;;;6.90;99.90;;;;;;5011303;28;20041;-78
2024/01/25 05:37:32;;;;;;;19.45;3.08;;;7.00;99.90;;;;;;5011166;28;19917;-79
2024/01/25 05:39:58;;;;;;;17.63;5.43;;;6.90;99.90;;;;;;5013592;28;20049;-79
2024/01/25 05:42:23;;;;;;;;;;;7.00;99.90;;;;;;5014545;28;20563;-78
2024/01/25 05:44:49;;;;;;;14.57;2.80;;;7.00;99.90;;;;;;5014279;28;19909;-78
2024/01/25 05:47:14;;;;;;;;;;;7.10;99.90;;;;;;5004194;28;20066;-79
2024/01/25 05:49:40;;;;;;;13.15;2.00;;;7.10;99.90;;;;;;5009956;28;19906;-79
2024/01/25 05:52:06;;;;;;;;;;;7.20;99.90;;;;;;4995827;28;20090;-79
2024/01/25 05:54:31;;;;;;;14.77;2.83;;;7.10;99.90;;;;;;5015126;28;19940;-79
2024/01/25 05:56:57;;;;;;;;;;;7.00;99.90;;;;;;5015378;28;20058;-79
2024/01/25 05:59:22;;;;;;;18.50;2.78;;;6.90;99.90;;;;;;5013792;28;19890;-79
2024/01/25 06:01:48;;;;;;;;;;;7.00;99.90;;;;;;5013931;28;20026;-78
2024/01/25 06:04:13;;;;;;;22.08;3.10;;;7.00;99.90;;;;;;5014378;28;19906;-79
2024/01/25 06:06:39;;;;;;;;;;;6.90;99.90;;;;;;5009877;28;20094;-79
2024/01/25 06:09:05;;;;;;;11.40;2.97;;;6.80;99.90;;;;;;5007472;23;20598;-78
2024/01/25 06:11:33;;;;;;;15.98;2.72;;;6.90;99.90;;;;;;5054362;28;20041;-78
2024/01/25 06:13:59;;;;;;;14.32;4.07;;;7.00;99.90;;;;;;5037567;28;20022;-78
2024/01/25 06:16:24;;;;;;;;;;;6.90;99.80;;;;;;5037987;28;20018;-78
2024/01/25 06:18:50;;;;;;;16.67;2.50;;;7.00;99.80;;;;;;5037683;28;19909;-79
2024/01/25 06:21:16;;;;;;;;;;;6.90;99.90;;;;;;5038144;28;20025;-78
2024/01/25 06:23:41;;;;;;;20.13;4.03;;;6.80;99.90;;;;;;5036979;28;19905;-79
2024/01/25 06:26:07;;;;;;;;;;;6.80;99.90;;;;;;5055526;28;20033;-79
2024/01/25 06:28:33;;;;;;;12.25;3.05;;;7.60;99.90;;;;;;5053666;28;19943;-79
2024/01/25 06:31:01;;;;;;;;;;;6.90;99.90;;;;;;5036694;28;20025;-79
2024/01/25 06:33:27;;;;;;;16.58;3.10;;;7.00;99.80;;;;;;5053709;28;19932;-78
2024/01/25 06:35:53;;;;;;;;;;;7.50;99.90;;;;;;5037186;28;20030;-79
2024/01/25 06:38:19;;;;;;;14.68;2.80;;;6.90;99.30;;;;;;5022691;28;19899;-79
2024/01/25 06:40:45;;;;;;;;;;;6.90;99.50;;;;;;5041386;28;20017;-79
2024/01/25 06:43:11;;;;;;;17.05;3.00;;;7.00;99.10;;;;;;5057948;28;19920;-79
2024/01/25 06:45:39;;;;;;;15.98;3.30;;;7.00;99.10;;;;;;5058239;28;20090;-79
2024/01/25 06:48:08;;;;;;;19.02;4.03;;;8.30;99.00;;;;;;5040114;28;20053;-79
2024/01/25 06:50:34;;;;;;;18.30;4.10;;;7.20;98.40;;;;;;5039251;28;20032;-78
2024/01/25 06:52:59;;;;;;;;;;;7.10;98.50;;;;;;5057162;28;20034;-79
2024/01/25 06:55:25;;;;;;;17.90;2.28;;;7.30;98.10;;;;;;5039608;28;19896;-78
2024/01/25 06:57:51;;;;;;;;;;;7.20;98.10;;;;;;5040285;28;20042;-79
2024/01/25 07:00:17;;;;;;;32.65;10.32;;;7.20;98.40;;;;;;5057521;28;19931;-79
2024/01/25 07:02:42;;;;;;;;;;;7.30;97.90;;;;;;5049465;28;20462;-79
2024/01/25 07:05:08;;;;;;;53.65;22.40;;;7.40;97.80;;;;;;5053557;28;19912;-79
2024/01/25 07:07:34;;;;;;;21.17;5.72;;;7.40;97.80;;;;;;5057111;28;20040;-79
2024/01/25 07:10:00;;;;;;;;;;;7.50;97.40;;;;;;5058705;28;20106;-78
2024/01/25 07:12:26;;;;;;;50.15;20.40;;;7.60;96.90;;;;;;5059772;28;19955;-79
2024/01/25 07:14:52;;;;;;;28.15;9.20;;;8.10;96.00;;;;;;5042525;28;20010;-78
2024/01/25 07:17:18;;;;;;;;;;;8.40;95.00;;;;;;5042476;28;20052;-79
2024/01/25 07:19:44;;;;;;;14.98;2.80;;;8.70;93.70;;;;;;5042334;28;19972;-79
2024/01/25 08:06:13;;;;;;;10.60;2.20;;;9.90;88.80;;;;;;5068885;23;20049;-79
2024/01/25 09:38:16;;;;;;;12.30;2.20;;;9.20;90.90;;;;;;6148384;23;20055;31
2024/01/25 09:40:43;;;;;;;12.80;2.13;;;9.10;90.90;;;;;;4995928;28;20086;-78
2024/01/25 09:43:09;;;;;;;16.63;2.53;;;9.10;90.00;;;;;;4997510;28;20038;-78
2024/01/25 09:45:35;;;;;;;11.15;2.42;;;8.90;88.30;;;;;;4998140;28;20017;-78
2024/01/25 09:48:04;;;;;;;;;;;8.90;89.90;;;;;;4998581;28;20008;-79
2024/01/25 09:50:33;;;;;;;19.13;1.90;;;9.00;89.30;;;;;;4997425;28;19906;-78
2024/01/25 09:53:00;;;;;;;11.50;1.83;;;8.60;89.10;;;;;;4981395;28;20055;-79
2024/01/25 09:55:26;;;;;;;12.23;2.30;;;8.80;88.40;;;;;;4997913;28;20026;-79
2024/01/25 09:57:58;;;;;;;14.20;2.05;;;8.70;89.20;;;;;;4997574;28;20039;-78
2024/01/25 10:00:25;;;;;;;13.15;2.00;;;8.80;88.00;;;;;;4997536;28;20035;-79
2024/01/25 10:02:51;;;;;;;14.13;2.63;;;8.80;87.80;;;;;;4998262;28;20030;-79
2024/01/25 10:05:18;;;;;;;13.07;4.10;;;8.80;88.00;;;;;;4997784;28;20023;-79
2024/01/25 10:20:42;;;;;;;10.50;1.83;;;9.10;85.10;;;;;;5768349;23;19920;-78
2024/01/25 10:23:11;;;;;;;11.48;2.25;;;9.20;84.20;;;;;;5040002;28;20088;-80
2024/01/25 10:25:37;;;;;;;17.27;3.70;;;9.10;85.40;;;;;;5040801;28;20045;-79
2024/01/25 10:28:05;;;;;;;15.05;2.80;;;8.90;84.00;;;;;;5042635;28;20056;-79
2024/01/25 10:30:35;;;;;;;17.35;3.72;;;9.00;83.10;;;;;;5059377;28;20047;-78
2024/01/25 10:33:04;;;;;;;15.07;3.17;;;9.30;82.80;;;;;;5058478;28;20056;-78
2024/01/25 10:35:31;;;;;;;15.57;2.88;;;9.40;82.10;;;;;;5058802;28;20049;-78
2024/01/25 10:37:57;;;;;;;19.20;4.55;;;9.40;81.90;;;;;;5041655;28;20060;-76
2024/01/25 10:40:23;;;;;;;;;;;9.60;80.90;;;;;;5059053;28;20033;-78
2024/01/25 10:42:49;;;;;;;18.10;3.42;;;9.50;81.60;;;;;;5041617;28;19905;-79
2024/01/25 10:45:15;;;;;;;17.33;3.85;;;9.40;80.10;;;;;;5041662;28;20032;-78
2024/01/25 10:47:41;;;;;;;;;;;9.20;81.10;;;;;;5059005;28;20005;-79
2024/01/25 10:50:13;;;;;;;16.45;3.05;;;9.40;79.80;;;;;;5041410;28;19911;-78
2024/01/25 10:52:40;;;;;;;18.13;3.13;;;9.20;80.10;;;;;;5042189;28;20006;-79
2024/01/25 10:55:08;;;;;;;17.58;3.08;;;8.80;79.80;;;;;;5058952;28;20021;-78
2024/01/25 10:57:39;;;;;;;13.50;2.47;;;9.30;80.20;;;;;;5042923;28;20029;-78
2024/01/25 11:00:11;;;;;;;14.50;2.50;;;9.40;81.90;;;;;;5042078;28;20082;-78
2024/01/25 11:02:39;;;;;;;15.48;2.47;;;9.40;81.20;;;;;;5041941;28;20059;-78
2024/01/25 11:44:18;;;;;;;11.90;1.75;;;9.40;78.30;;;;;;4978348;29;20078;-79
2024/01/25 11:46:44;;;;;;;25.25;1.73;;;9.30;77.60;;;;;;4963033;29;20036;-79
2024/01/25 11:49:10;;;;;;;;;;;9.70;77.40;;;;;;4963612;29;20041;-78
2024/01/25 11:51:36;;;;;;;14.13;4.65;;;9.40;78.00;;;;;;4963281;29;19906;-78
2024/01/25 11:54:05;;;;;;;;;;;9.30;77.60;;;;;;4962919;29;20027;-79
2024/01/25 11:56:34;;;;;;;21.58;5.95;;;9.10;78.50;;;;;;4962704;29;19938;-78
2024/01/25 11:59:01;;;;;;;35.92;13.65;;;9.10;78.30;;;;;;4979786;29;20063;-78
2024/01/25 12:01:28;;;;;;;23.35;6.00;;;9.10;78.20;;;;;;4979660;29;20023;-77
2024/01/25 12:54:28;;;;;;;11.25;1.92;;;9.20;75.80;;;;;;5610630;23;20086;-77
2024/01/25 12:56:54;;;;;;;14.02;2.10;;;9.20;76.30;;;;;;5039806;28;20033;-79
2024/01/25 12:59:20;;;;;;;;;;;8.90;77.00;;;;;;5058461;28;20040;-79
2024/01/25 13:01:46;;;;;;;8.80;1.70;;;9.40;76.60;;;;;;5040507;28;19905;-78
2024/01/25 13:04:12;;;;;;;;;;;9.30;75.90;;;;;;5041293;28;20002;-78
2024/01/25 13:06:37;;;;;;;9.90;1.55;;;9.30;76.30;;;;;;5039378;28;19901;-77
2024/01/25 13:09:03;;;;;;;;;;;9.30;76.00;;;;;;5023831;28;20038;-78
2024/01/25 13:11:30;;;;;;;12.07;2.05;;;9.30;76.10;;;;;;5057065;28;19905;-79
2024/01/25 13:13:56;;;;;;;7.70;1.55;;;9.00;76.90;;;;;;5039606;28;20025;-79
2024/01/25 13:16:22;;;;;;;11.88;2.40;;;9.20;76.90;;;;;;5023737;28;20013;-78
2024/01/25 13:18:48;;;;;;;;;;;9.20;74.00;;;;;;5057470;28;20037;-79
2024/01/25 13:21:14;;;;;;;9.77;1.40;;;9.50;72.80;;;;;;5039745;28;19977;-78
2024/01/25 13:23:39;;;;;;;;;;;9.60;72.90;;;;;;5040343;28;20049;-79
2024/01/25 13:26:07;;;;;;;13.73;2.75;;;9.80;73.20;;;;;;5057109;28;19917;-79
2024/01/25 13:28:33;;;;;;;11.98;1.83;;;9.30;73.50;;;;;;5023656;28;20052;-79
2024/01/25 13:30:59;;;;;;;12.27;1.90;;;9.50;73.20;;;;;;5039237;28;20017;-78
2024/01/25 13:33:25;;;;;;;;;;;9.40;73.60;;;;;;5056966;28;20029;-78
2024/01/25 13:35:51;;;;;;;10.98;1.88;;;9.40;72.50;;;;;;5057240;28;19889;-78
2024/01/25 13:38:17;;;;;;;;;;;10.20;73.10;;;;;;5057593;28;20112;-79
2024/01/25 13:40:43;;;;;;;10.45;1.50;;;9.50;71.90;;;;;;5039903;28;19897;-80
2024/01/25 13:43:08;;;;;;;;;;;9.30;72.60;;;;;;5057332;28;20030;-78
2024/01/25 13:45:34;;;;;;;9.15;1.20;;;9.40;72.90;;;;;;5042651;28;19949;-79
2024/01/25 13:48:01;;;;;;;;;;;9.30;72.00;;;;;;5044488;28;20033;-84
2024/01/25 13:58:49;;;;;;;11.60;2.47;;;9.30;71.50;;;;;;6156134;23;20029;31
2024/01/25 14:01:15;;;;;;;7.90;2.22;;;9.30;71.70;;;;;;4983066;28;20039;-80
2024/01/25 14:03:41;;;;;;;;;;;9.10;72.20;;;;;;5015718;28;20015;-79
2024/01/25 14:06:09;;;;;;;16.80;2.30;;;9.00;71.90;;;;;;5020782;28;19974;-78
2024/01/25 14:08:37;;;;;;;10.05;1.58;;;9.30;71.60;;;;;;5004124;28;20046;-79
2024/01/25 14:11:05;;;;;;;13.07;3.38;;;9.20;71.80;;;;;;5004349;28;20022;-79
2024/01/25 14:13:31;;;;;;;11.77;1.98;;;9.10;71.90;;;;;;5004064;28;20011;-77
2024/01/25 14:15:59;;;;;;;6.20;1.27;;;9.00;71.20;;;;;;5003790;28;20006;-79
2024/01/25 14:18:27;;;;;;;11.27;2.05;;;9.20;71.90;;;;;;5003619;28;20057;-78
2024/01/25 14:20:53;;;;;;;11.95;2.15;;;9.20;71.20;;;;;;5004170;28;20540;-79
2024/01/25 14:23:18;;;;;;;;;;;9.20;71.90;;;;;;5021883;28;20022;-79
2024/01/25 14:25:45;;;;;;;12.32;1.67;;;9.20;71.40;;;;;;5003910;28;19924;-79
2024/01/25 14:28:11;;;;;;;11.13;1.30;;;9.00;71.10;;;;;;4995064;28;20027;-79
2024/01/25 14:30:36;;;;;;;;;;;9.10;72.00;;;;;;5005819;28;20010;-79
2024/01/25 14:33:03;;;;;;;8.85;1.00;;;9.00;72.10;;;;;;5005888;28;19917;-80
2024/01/25 14:35:29;;;;;;;7.90;1.80;;;9.00;71.70;;;;;;5019283;28;20105;-79
2024/01/25 14:37:55;;;;;;;;;;;8.90;71.40;;;;;;4999918;28;20014;-78
2024/01/25 14:40:26;;;;;;;5.28;1.30;;;8.60;71.90;;;;;;5016663;28;19890;-78
2024/01/25 14:43:11;;;;;;;9.50;1.10;;;8.80;72.50;;;;;;5017610;28;20069;-78
2024/01/25 14:45:37;;;;;;;10.63;2.47;;;8.70;72.30;;;;;;5021469;28;20010;-81
2024/01/25 14:48:05;;;;;;;12.70;2.53;;;8.60;72.20;;;;;;5003980;28;20034;-81
2024/01/25 14:50:32;;;;;;;11.93;1.92;;;8.80;72.20;;;;;;5002488;28;20082;-79
2024/01/25 14:52:58;;;;;;;8.57;1.65;;;8.70;73.00;;;;;;5019846;28;20068;-79
2024/01/25 14:55:24;;;;;;;12.45;2.20;;;8.70;72.70;;;;;;5003372;28;20019;-80
2024/01/25 14:57:50;;;;;;;;;;;9.70;73.60;;;;;;4984283;28;20039;-80
2024/01/25 15:00:19;;;;;;;10.65;1.77;;;8.30;73.00;;;;;;5001285;28;19926;-80
2024/01/25 15:02:46;;;;;;;10.38;1.98;;;8.30;73.00;;;;;;5000486;28;20011;-80
2024/01/25 15:05:12;;;;;;;11.20;1.77;;;8.40;74.00;;;;;;5000964;28;20031;-78
2024/01/25 15:07:40;;;;;;;12.07;2.50;;;8.40;73.60;;;;;;5001098;28;20011;-79
2024/01/25 15:10:06;;;;;;;13.38;1.85;;;8.30;73.60;;;;;;5000879;28;20022;-79
2024/01/25 15:12:32;;;;;;;14.90;2.63;;;8.20;74.50;;;;;;5001723;28;20035;-81
2024/01/25 15:14:58;;;;;;;;;;;8.10;74.50;;;;;;5001199;28;20026;-79
2024/01/25 15:17:24;;;;;;;7.60;1.40;;;8.10;75.00;;;;;;5000038;28;19905;-81
2024/01/25 15:19:50;;;;;;;21.25;4.90;;;7.50;74.50;;;;;;5001059;28;20034;-79
2024/01/25 15:22:15;;;;;;;;;;;7.90;75.20;;;;;;5360333;23;20431;-79
2024/01/25 15:24:41;;;;;;;20.38;7.45;;;8.70;75.80;;;;;;5038776;28;19912;-79
2024/01/25 15:27:07;;;;;;;;;;;7.90;75.30;;;;;;5039010;28;20061;-78
2024/01/25 15:29:33;;;;;;;9.23;2.85;;;7.90;75.80;;;;;;5038452;28;19905;-79
2024/01/25 15:31:59;;;;;;;;;;;7.80;75.90;;;;;;5032362;28;20069;-79
2024/01/25 15:34:25;;;;;;;9.70;1.38;;;7.70;76.20;;;;;;5035011;28;19910;-78
2024/01/25 15:36:50;;;;;;;;;;;7.70;77.50;;;;;;5019539;28;20122;-78
2024/01/25 15:39:18;;;;;;;11.35;2.38;;;7.70;76.80;;;;;;5019307;28;19918;-79
2024/01/25 15:41:49;;;;;;;8.27;2.35;;;8.70;77.90;;;;;;5019427;28;20082;-79
2024/01/25 15:44:15;;;;;;;11.05;1.63;;;7.70;77.30;;;;;;5018882;28;20014;-78
2024/01/25 15:46:41;;;;;;;10.43;2.33;;;8.30;77.40;;;;;;5018310;28;20061;-78
2024/01/25 15:49:07;;;;;;;;;;;7.70;76.90;;;;;;5019069;28;20029;-79
2024/01/25 15:51:33;;;;;;;8.80;1.23;;;7.60;77.50;;;;;;5018327;28;19890;-78
2024/01/25 15:54:00;;;;;;;;;;;7.80;77.70;;;;;;5019568;28;20023;-79
2024/01/25 15:56:26;;;;;;;;;;;7.50;77.50;;;;;;5038455;28;19923;-79
2024/01/25 15:58:53;;;;;;;10.10;1.35;;;7.50;77.70;;;;;;5038130;28;19890;-78
2024/01/25 16:01:19;;;;;;;10.23;1.25;;;7.40;77.90;;;;;;5037875;28;20022;-78
2024/01/25 16:03:46;;;;;;;;;;;7.40;77.80;;;;;;5021577;28;20033;-77
2024/01/25 16:06:12;;;;;;;15.75;4.55;;;7.40;77.90;;;;;;5037516;28;19905;-78
2024/01/25 16:08:38;;;;;;;;;;;7.50;78.00;;;;;;5037595;28;20037;-78
2024/01/25 16:11:04;;;;;;;11.27;1.50;;;7.50;77.50;;;;;;5038323;28;19906;-79
2024/01/25 16:13:29;;;;;;;;;;;7.50;77.80;;;;;;5032901;28;20038;-79
2024/01/25 16:15:57;;;;;;;9.75;1.55;;;7.60;77.70;;;;;;5017233;28;19906;-79
2024/01/25 16:18:23;;;;;;;9.85;1.23;;;7.90;77.40;;;;;;5017359;28;20026;-80
2024/01/25 16:20:48;;;;;;;;;;;7.60;77.50;;;;;;5018830;28;20053;-79
2024/01/25 16:23:15;;;;;;;10.27;1.73;;;6.90;77.00;;;;;;5017909;28;19909;-78
2024/01/25 16:25:41;;;;;;;15.13;2.15;;;7.60;77.40;;;;;;5032328;28;20498;-79
2024/01/25 16:28:07;;;;;;;;;;;7.60;77.60;;;;;;5038140;28;20033;-78
2024/01/25 16:30:34;;;;;;;8.93;1.30;;;7.30;77.40;;;;;;5036997;28;19889;-79
2024/01/25 16:32:59;;;;;;;7.90;1.50;;;7.60;77.30;;;;;;5037230;28;20042;-79
2024/01/25 16:35:25;;;;;;;;;;;7.70;77.40;;;;;;5038140;28;20057;-80
2024/01/25 16:37:51;;;;;;;11.55;1.50;;;7.40;77.40;;;;;;5036487;28;19913;-80
2024/01/25 16:40:17;;;;;;;;;;;7.50;77.50;;;;;;5038650;28;20030;-79
2024/01/25 16:42:45;;;;;;;7.35;1.02;;;7.50;77.40;;;;;;5036925;28;19917;-79
2024/01/25 16:45:12;;;;;;;11.90;2.05;;;6.60;77.00;;;;;;5037106;28;20050;-79
2024/01/25 16:47:37;;;;;;;;;;;7.40;77.90;;;;;;5035329;28;20029;-78
2024/01/25 16:50:03;;;;;;;8.57;1.40;;;7.40;77.40;;;;;;5034232;28;20325;-78
2024/01/25 16:52:29;;;;;;;8.00;1.38;;;7.40;77.90;;;;;;5014890;28;20026;-78
2024/01/25 16:54:55;;;;;;;;;;;7.40;78.30;;;;;;5017112;28;20086;-79
2024/01/25 16:57:21;;;;;;;10.40;1.58;;;7.40;78.20;;;;;;5015991;28;19918;-78
2024/01/25 16:59:47;;;;;;;;;;;7.50;77.90;;;;;;5016124;28;20035;-78
2024/01/25 17:02:13;;;;;;;8.45;1.50;;;7.50;77.50;;;;;;5015257;28;19905;-78
2024/01/25 17:04:38;;;;;;;;;;;7.50;77.90;;;;;;5010954;28;20023;-80
2024/01/25 17:07:04;;;;;;;12.25;1.60;;;7.50;77.40;;;;;;5014641;28;19894;-78
2024/01/25 17:09:30;;;;;;;;;;;7.50;77.60;;;;;;5015785;28;20026;-78
2024/01/25 17:11:56;;;;;;;7.05;1.33;;;6.90;77.10;;;;;;5016534;28;19906;-78
2024/01/25 17:14:22;;;;;;;;;;;7.50;77.90;;;;;;5026373;28;20025;-80
2024/01/25 17:16:47;;;;;;;11.13;1.77;;;7.50;77.80;;;;;;5027944;28;19989;-78
2024/01/25 17:19:14;;;;;;;;;;;7.50;77.80;;;;;;5014491;28;20034;-79
2024/01/25 17:22:02;;;;;;;10.18;1.80;;;7.30;77.80;;;;;;5019710;28;20277;-77